createdAt,value
2018-05-02T00:00:49.421Z,89.86
2018-05-02T00:01:49.409Z,90.52
2018-05-02T00:02:49.398Z,90.43
2018-05-02T00:03:49.386Z,91.00
2018-05-02T00:04:49.378Z,91.38
2018-05-02T00:05:49.366Z,90.43
2018-05-02T00:06:49.351Z,89.76
2018-05-02T00:07:49.340Z,89.20
2018-05-02T00:08:49.328Z,89.95
2018-05-02T00:09:49.317Z,90.52
2018-05-02T00:10:49.305Z,90.90
2018-05-02T00:11:49.294Z,90.81
2018-05-02T00:12:49.281Z,89.86
2018-05-02T00:13:49.271Z,89.95
2018-05-02T00:14:49.259Z,90.62
2018-05-02T00:15:49.247Z,91.85
2018-05-02T00:16:49.235Z,91.38
2018-05-02T00:17:49.224Z,91.80
2018-05-02T00:18:49.211Z,92.94
2018-05-02T00:19:49.201Z,93.04
2018-05-02T00:20:49.188Z,92.85
2018-05-02T00:21:49.176Z,93.70
2018-05-02T00:22:49.165Z,93.89
2018-05-02T00:23:49.156Z,93.51
2018-05-02T00:24:49.142Z,93.41
2018-05-02T00:25:49.130Z,93.32
2018-05-02T00:26:49.119Z,93.89
2018-05-02T00:27:49.107Z,94.27
2018-05-02T00:28:49.095Z,93.89
2018-05-02T00:29:49.083Z,94.08
2018-05-02T00:30:49.072Z,94.37
2018-05-02T00:31:49.061Z,94.74
2018-05-02T00:32:49.048Z,94.56
2018-05-02T00:33:49.042Z,94.74
2018-05-02T00:34:49.026Z,94.84
2018-05-02T00:35:49.014Z,95.50
2018-05-02T00:36:49.004Z,95.12
2018-05-02T00:37:48.989Z,94.46
2018-05-02T00:38:48.979Z,93.99
2018-05-02T00:39:48.967Z,94.18
2018-05-02T00:40:48.954Z,94.37
2018-05-02T00:41:48.943Z,93.51
2018-05-02T00:42:48.931Z,94.27
2018-05-02T00:43:48.921Z,94.46
2018-05-02T00:44:48.911Z,94.27
2018-05-02T00:45:48.896Z,94.08
2018-05-02T00:46:48.885Z,93.80
2018-05-02T00:47:48.873Z,92.85
2018-05-02T00:48:48.861Z,93.61
2018-05-02T00:49:48.849Z,93.61
2018-05-02T00:50:48.837Z,93.61
2018-05-02T00:51:48.826Z,93.89
2018-05-02T00:52:48.813Z,94.18
2018-05-02T00:53:48.806Z,94.18
2018-05-02T00:54:48.791Z,94.08
2018-05-02T00:55:48.782Z,94.74
2018-05-02T00:56:48.767Z,94.84
2018-05-02T00:57:48.755Z,95.03
2018-05-02T00:58:48.744Z,95.50
2018-05-02T00:59:48.733Z,95.98
2018-05-02T01:00:48.729Z,95.31
2018-05-02T01:01:48.708Z,95.50
2018-05-02T01:02:48.696Z,95.79
2018-05-02T01:03:48.687Z,95.69
2018-05-02T01:04:48.673Z,95.98
2018-05-02T01:05:48.662Z,95.69
2018-05-02T01:06:48.650Z,95.98
2018-05-02T01:07:48.639Z,95.69
2018-05-02T01:08:48.625Z,95.60
2018-05-02T01:09:48.617Z,95.22
2018-05-02T01:10:48.602Z,94.65
2018-05-02T01:11:48.591Z,94.08
2018-05-02T01:12:48.578Z,94.46
2018-05-02T01:13:48.567Z,93.13
2018-05-02T01:14:48.555Z,93.70
2018-05-02T01:15:48.545Z,93.41
2018-05-02T01:16:48.531Z,94.08
2018-05-02T01:17:48.519Z,94.93
2018-05-02T01:18:48.509Z,94.84
2018-05-02T01:19:48.495Z,94.18
2018-05-02T01:20:48.483Z,94.93
2018-05-02T01:21:48.476Z,94.27
2018-05-02T01:22:48.459Z,94.18
2018-05-02T01:23:48.447Z,94.65
2018-05-02T01:24:48.434Z,94.84
2018-05-02T01:25:48.422Z,94.18
2018-05-02T01:26:48.410Z,94.18
2018-05-02T01:27:48.399Z,95.03
2018-05-02T01:28:48.386Z,95.31
2018-05-02T01:29:48.375Z,95.69
2018-05-02T01:30:48.363Z,95.22
2018-05-02T01:31:48.350Z,95.45
2018-05-02T01:32:48.338Z,95.65
2018-05-02T01:33:48.326Z,95.55
2018-05-02T01:34:48.314Z,96.50
2018-05-02T01:35:48.306Z,95.74
2018-05-02T01:36:48.290Z,96.50
2018-05-02T01:37:48.277Z,95.84
2018-05-02T01:38:48.266Z,96.03
2018-05-02T01:39:48.254Z,96.50
2018-05-02T01:40:48.241Z,96.41
2018-05-02T01:41:48.229Z,95.74
2018-05-02T01:42:48.217Z,96.22
2018-05-02T01:43:48.206Z,96.50
2018-05-02T01:44:48.193Z,96.41
2018-05-02T01:45:48.181Z,96.50
2018-05-02T01:46:48.169Z,96.50
2018-05-02T01:47:48.157Z,96.41
2018-05-02T01:48:48.144Z,96.22
2018-05-02T01:49:48.132Z,95.93
2018-05-02T01:50:48.120Z,96.50
2018-05-02T01:51:48.109Z,96.12
2018-05-02T01:52:48.096Z,96.22
2018-05-02T01:53:48.084Z,96.50
2018-05-02T01:54:48.075Z,96.22
2018-05-02T01:55:48.061Z,96.41
2018-05-02T01:56:48.047Z,96.03
2018-05-02T01:57:48.036Z,96.41
2018-05-02T01:58:48.023Z,96.22
2018-05-02T01:59:48.012Z,96.50
2018-05-02T02:00:47.999Z,96.69
2018-05-02T02:01:47.987Z,96.97
2018-05-02T02:02:47.974Z,97.35
2018-05-02T02:03:47.963Z,97.92
2018-05-02T02:04:47.950Z,98.11
2018-05-02T02:05:47.937Z,97.54
2018-05-02T02:06:47.927Z,97.73
2018-05-02T02:07:47.914Z,97.92
2018-05-02T02:08:47.901Z,98.11
2018-05-02T02:09:47.890Z,97.83
2018-05-02T02:10:47.877Z,98.11
2018-05-02T02:11:47.874Z,98.49
2018-05-02T02:12:47.856Z,98.30
2018-05-02T02:13:47.841Z,98.49
2018-05-02T02:14:47.829Z,98.02
2018-05-02T02:15:47.817Z,97.73
2018-05-02T02:16:47.806Z,97.54
2018-05-02T02:17:47.792Z,97.64
2018-05-02T02:18:47.781Z,97.73
2018-05-02T02:19:47.769Z,97.73
2018-05-02T02:20:47.756Z,97.26
2018-05-02T02:21:47.744Z,96.88
2018-05-02T02:22:47.732Z,97.92
2018-05-02T02:23:47.725Z,96.59
2018-05-02T02:24:47.706Z,96.88
2018-05-02T02:25:47.694Z,97.35
2018-05-02T02:26:47.686Z,97.83
2018-05-02T02:27:47.670Z,97.35
2018-05-02T02:28:47.657Z,96.78
2018-05-02T02:29:47.645Z,96.78
2018-05-02T02:30:47.633Z,97.26
2018-05-02T02:31:47.624Z,96.59
2018-05-02T02:32:47.607Z,97.07
2018-05-02T02:33:47.595Z,97.16
2018-05-02T02:34:47.583Z,97.64
2018-05-02T02:35:47.572Z,97.83
2018-05-02T02:36:47.558Z,97.07
2018-05-02T02:37:47.552Z,97.35
2018-05-02T02:38:47.534Z,98.02
2018-05-02T02:39:47.524Z,97.16
2018-05-02T02:40:47.514Z,96.97
2018-05-02T02:41:47.497Z,96.78
2018-05-02T02:42:47.485Z,97.35
2018-05-02T02:43:47.473Z,97.45
2018-05-02T02:44:47.459Z,97.73
2018-05-02T02:45:47.448Z,98.30
2018-05-02T02:46:47.436Z,98.87
2018-05-02T02:47:47.423Z,98.96
2018-05-02T02:48:47.411Z,99.34
2018-05-02T02:49:47.399Z,99.25
2018-05-02T02:50:47.387Z,99.63
2018-05-02T02:51:47.374Z,99.77
2018-05-02T02:52:47.362Z,99.63
2018-05-02T02:53:47.349Z,99.77
2018-05-02T02:54:47.338Z,99.96
2018-05-02T02:55:47.326Z,99.39
2018-05-02T02:56:47.313Z,99.99
2018-05-02T02:57:47.301Z,99.96
2018-05-02T02:58:47.288Z,99.99
2018-05-02T02:59:47.276Z,99.99
2018-05-02T03:00:47.263Z,99.96
2018-05-02T03:01:47.254Z,99.96
2018-05-02T03:02:47.240Z,99.86
2018-05-02T03:03:47.227Z,99.99
2018-05-02T03:04:47.215Z,99.99
2018-05-02T03:05:47.202Z,99.99
2018-05-02T03:06:47.190Z,99.99
2018-05-02T03:07:47.179Z,99.99
2018-05-02T03:08:47.165Z,99.99
2018-05-02T03:09:47.153Z,99.99
2018-05-02T03:10:47.158Z,99.99
2018-05-02T03:11:47.129Z,99.99
2018-05-02T03:12:47.116Z,99.77
2018-05-02T03:13:47.103Z,99.67
2018-05-02T03:14:47.091Z,99.77
2018-05-02T03:15:47.079Z,99.96
2018-05-02T03:16:47.066Z,99.99
2018-05-02T03:17:47.058Z,99.99
2018-05-02T03:18:47.042Z,99.99
2018-05-02T03:19:47.029Z,99.99
2018-05-02T03:20:47.016Z,99.99
2018-05-02T03:21:47.004Z,99.99
2018-05-02T03:22:46.991Z,99.99
2018-05-02T03:23:46.980Z,99.99
2018-05-02T03:24:46.967Z,99.99
2018-05-02T03:25:46.956Z,99.99
2018-05-02T03:26:46.942Z,99.99
2018-05-02T03:27:46.929Z,99.99
2018-05-02T03:28:46.917Z,99.99
2018-05-02T03:29:46.904Z,99.99
2018-05-02T03:30:46.894Z,99.99
2018-05-02T03:31:46.880Z,99.99
2018-05-02T03:32:46.866Z,99.99
2018-05-02T03:33:46.854Z,99.99
2018-05-02T03:34:46.841Z,99.99
2018-05-02T03:35:46.830Z,99.99
2018-05-02T03:36:46.819Z,99.99
2018-05-02T03:37:46.804Z,99.99
2018-05-02T03:38:46.791Z,99.99
2018-05-02T03:39:46.780Z,99.99
2018-05-02T03:40:46.766Z,99.99
2018-05-02T03:41:46.754Z,99.99
2018-05-02T03:42:46.741Z,99.99
2018-05-02T03:43:46.729Z,99.99
2018-05-02T03:44:46.718Z,99.99
2018-05-02T03:45:46.704Z,99.99
2018-05-02T03:46:46.692Z,99.99
2018-05-02T03:47:46.679Z,99.99
2018-05-02T03:48:46.665Z,99.99
2018-05-02T03:49:46.653Z,99.99
2018-05-02T03:50:46.640Z,99.99
2018-05-02T03:51:46.628Z,99.99
2018-05-02T03:52:46.615Z,99.99
2018-05-02T03:53:46.606Z,99.99
2018-05-02T03:54:46.590Z,99.99
2018-05-02T03:55:46.578Z,99.99
2018-05-02T03:56:46.564Z,99.99
2018-05-02T03:57:46.557Z,99.99
2018-05-02T03:58:46.540Z,99.99
2018-05-02T03:59:46.617Z,99.99
2018-05-02T04:00:46.515Z,99.99
2018-05-02T04:01:46.502Z,99.99
2018-05-02T04:02:46.489Z,99.99
2018-05-02T04:03:46.477Z,99.99
2018-05-02T04:04:46.464Z,99.99
2018-05-02T04:05:46.451Z,99.99
2018-05-02T04:06:46.439Z,99.99
2018-05-02T04:07:46.426Z,99.99
2018-05-02T04:08:46.413Z,99.99
2018-05-02T04:09:46.400Z,99.99
2018-05-02T04:10:46.389Z,99.99
2018-05-02T04:11:46.376Z,99.99
2018-05-02T04:12:46.363Z,99.99
2018-05-02T04:13:46.350Z,99.99
2018-05-02T04:14:46.337Z,99.99
2018-05-02T04:15:46.325Z,99.99
2018-05-02T04:16:46.312Z,99.99
2018-05-02T04:17:46.299Z,99.99
2018-05-02T04:18:46.362Z,99.99
2018-05-02T04:19:46.274Z,99.99
2018-05-02T04:20:46.261Z,99.99
2018-05-02T04:21:46.249Z,99.99
2018-05-02T04:22:46.237Z,99.99
2018-05-02T04:23:46.224Z,99.99
2018-05-02T04:24:46.211Z,99.99
2018-05-02T04:25:46.198Z,99.99
2018-05-02T04:26:46.186Z,99.99
2018-05-02T04:27:46.174Z,99.99
2018-05-02T04:28:46.160Z,99.99
2018-05-02T04:29:46.148Z,99.99
2018-05-02T04:30:46.136Z,99.99
2018-05-02T04:31:46.123Z,99.99
2018-05-02T04:32:46.110Z,99.99
2018-05-02T04:33:46.098Z,99.99
2018-05-02T04:34:46.085Z,99.99
2018-05-02T04:35:46.075Z,99.99
2018-05-02T04:36:46.060Z,99.99
2018-05-02T04:37:46.047Z,99.99
2018-05-02T04:38:46.036Z,99.99
2018-05-02T04:39:46.023Z,99.99
2018-05-02T04:40:46.009Z,99.99
2018-05-02T04:41:45.997Z,99.99
2018-05-02T04:42:45.985Z,99.99
2018-05-02T04:43:45.973Z,99.99
2018-05-02T04:44:45.960Z,99.99
2018-05-02T04:45:45.950Z,99.99
2018-05-02T04:46:45.936Z,99.99
2018-05-02T04:47:45.923Z,99.91
2018-05-02T04:48:45.911Z,99.44
2018-05-02T04:49:45.899Z,99.63
2018-05-02T04:50:45.886Z,99.72
2018-05-02T04:51:45.874Z,99.63
2018-05-02T04:52:45.893Z,99.99
2018-05-02T04:53:45.849Z,99.99
2018-05-02T04:54:45.837Z,99.99
2018-05-02T04:55:45.827Z,99.99
2018-05-02T04:56:45.812Z,99.91
2018-05-02T04:57:45.800Z,99.63
2018-05-02T04:58:45.789Z,99.63
2018-05-02T04:59:45.776Z,99.34
2018-05-02T05:00:45.763Z,98.58
2018-05-02T05:01:45.751Z,97.16
2018-05-02T05:02:45.739Z,98.02
2018-05-02T05:03:45.726Z,97.54
2018-05-02T05:04:45.714Z,98.11
2018-05-02T05:05:45.702Z,98.87
2018-05-02T05:06:45.691Z,98.49
2018-05-02T05:07:45.679Z,98.77
2018-05-02T05:08:45.667Z,98.30
2018-05-02T05:09:45.656Z,98.02
2018-05-02T05:10:45.641Z,98.39
2018-05-02T05:11:45.630Z,98.21
2018-05-02T05:12:45.618Z,98.07
2018-05-02T05:13:45.605Z,98.11
2018-05-02T05:14:45.594Z,98.16
2018-05-02T05:15:45.581Z,97.40
2018-05-02T05:16:45.569Z,97.21
2018-05-02T05:17:45.558Z,96.55
2018-05-02T05:18:45.545Z,95.69
2018-05-02T05:19:45.534Z,95.88
2018-05-02T05:20:45.521Z,94.56
2018-05-02T05:21:45.509Z,94.18
2018-05-02T05:22:45.499Z,93.61
2018-05-02T05:23:45.487Z,92.57
2018-05-02T05:24:45.477Z,92.47
2018-05-02T05:25:45.463Z,93.41
2018-05-02T05:26:45.451Z,93.27
2018-05-02T05:27:45.439Z,93.75
2018-05-02T05:28:45.427Z,94.23
2018-05-02T05:29:45.416Z,94.32
2018-05-02T05:30:45.405Z,94.42
2018-05-02T05:31:45.393Z,94.32
2018-05-02T05:32:45.381Z,94.03
2018-05-02T05:33:45.371Z,93.75
2018-05-02T05:34:45.359Z,93.75
2018-05-02T05:35:45.348Z,94.60
2018-05-02T05:36:45.336Z,93.56
2018-05-02T05:37:45.325Z,93.75
2018-05-02T05:38:45.315Z,93.46
2018-05-02T05:39:45.305Z,93.75
2018-05-02T05:40:45.291Z,92.23
2018-05-02T05:41:45.280Z,92.42
2018-05-02T05:42:45.271Z,90.85
2018-05-02T05:43:45.259Z,90.85
2018-05-02T05:44:45.247Z,88.67
2018-05-02T05:45:45.236Z,87.05
2018-05-02T05:46:45.226Z,87.05
2018-05-02T05:47:45.217Z,88.01
2018-05-02T05:48:45.203Z,87.72
2018-05-02T05:49:45.192Z,87.29
2018-05-02T05:50:45.182Z,86.34
2018-05-02T05:51:45.174Z,86.63
2018-05-02T05:52:45.160Z,85.30
2018-05-02T05:53:45.149Z,84.25
2018-05-02T05:54:45.140Z,85.30
2018-05-02T05:55:45.131Z,85.01
2018-05-02T05:56:45.119Z,84.44
2018-05-02T05:57:45.111Z,83.78
2018-05-02T05:58:45.097Z,82.35
2018-05-02T05:59:45.088Z,82.54
2018-05-02T06:00:45.147Z,81.73
2018-05-02T06:01:45.064Z,82.29
2018-05-02T06:02:45.055Z,82.77
2018-05-02T06:03:45.045Z,84.67
2018-05-02T06:04:45.034Z,84.67
2018-05-02T06:05:45.023Z,83.53
2018-05-02T06:06:45.104Z,81.63
2018-05-02T06:07:45.003Z,81.54
2018-05-02T06:08:45.003Z,81.16
2018-05-02T06:09:44.984Z,81.06
2018-05-02T06:10:44.971Z,81.44
2018-05-02T06:11:44.963Z,80.53
2018-05-02T06:12:45.020Z,79.58
2018-05-02T06:13:44.941Z,79.77
2018-05-02T06:14:44.931Z,78.91
2018-05-02T06:15:44.922Z,79.11
2018-05-02T06:16:44.910Z,78.53
2018-05-02T06:17:44.902Z,77.49
2018-05-02T06:18:44.987Z,77.49
2018-05-02T06:19:44.881Z,77.39
2018-05-02T06:20:44.870Z,77.43
2018-05-02T06:21:44.861Z,77.34
2018-05-02T06:22:44.851Z,77.81
2018-05-02T06:23:44.842Z,77.62
2018-05-02T06:24:44.832Z,78.96
2018-05-02T06:25:44.824Z,77.72
2018-05-02T06:26:44.812Z,76.39
2018-05-02T06:27:44.803Z,77.15
2018-05-02T06:28:44.792Z,76.76
2018-05-02T06:29:44.783Z,76.39
2018-05-02T06:30:44.773Z,76.14
2018-05-02T06:31:44.815Z,77.19
2018-05-02T06:32:44.754Z,75.57
2018-05-02T06:33:44.748Z,75.09
2018-05-02T06:34:44.735Z,73.57
2018-05-02T06:35:44.733Z,74.62
2018-05-02T06:36:44.717Z,73.38
2018-05-02T06:37:44.778Z,72.52
2018-05-02T06:38:44.698Z,72.24
2018-05-02T06:39:44.689Z,71.76
2018-05-02T06:40:44.679Z,71.95
2018-05-02T06:41:44.670Z,71.19
2018-05-02T06:42:44.660Z,69.76
2018-05-02T06:43:44.652Z,70.52
2018-05-02T06:44:44.642Z,70.65
2018-05-02T06:45:44.634Z,70.56
2018-05-02T06:46:44.624Z,70.08
2018-05-02T06:47:44.615Z,70.08
2018-05-02T06:48:44.607Z,69.79
2018-05-02T06:49:44.600Z,71.32
2018-05-02T06:50:44.587Z,70.84
2018-05-02T06:51:44.578Z,69.51
2018-05-02T06:52:44.570Z,68.84
2018-05-02T06:53:44.561Z,69.32
2018-05-02T06:54:44.583Z,70.47
2018-05-02T06:55:44.542Z,69.51
2018-05-02T06:56:44.532Z,69.26
2018-05-02T06:57:44.524Z,69.26
2018-05-02T06:58:44.515Z,69.74
2018-05-02T06:59:44.507Z,69.35
2018-05-02T07:00:44.502Z,68.59
2018-05-02T07:01:44.489Z,68.02
2018-05-02T07:02:44.482Z,68.24
2018-05-02T07:03:44.476Z,66.72
2018-05-02T07:04:44.465Z,66.05
2018-05-02T07:05:44.460Z,65.39
2018-05-02T07:06:44.450Z,65.48
2018-05-02T07:07:44.446Z,65.00
2018-05-02T07:08:44.439Z,65.52
2018-05-02T07:09:44.432Z,65.99
2018-05-02T07:10:44.428Z,65.52
2018-05-02T07:11:44.422Z,65.23
2018-05-02T07:12:44.417Z,64.56
2018-05-02T07:13:44.414Z,67.71
2018-05-02T07:14:44.424Z,64.56
2018-05-02T07:15:44.407Z,63.13
2018-05-02T07:16:44.404Z,62.94
2018-05-02T07:17:44.402Z,64.12
2018-05-02T07:18:44.400Z,62.88
2018-05-02T07:19:44.398Z,60.78
2018-05-02T07:20:44.396Z,60.81
2018-05-02T07:21:44.395Z,60.33
2018-05-02T07:22:44.394Z,60.04
2018-05-02T07:23:44.395Z,60.24
2018-05-02T07:24:44.393Z,59.76
2018-05-02T07:25:44.393Z,59.76
2018-05-02T07:26:44.393Z,58.83
2018-05-02T07:27:44.393Z,58.45
2018-05-02T07:28:44.395Z,58.07
2018-05-02T07:29:44.395Z,56.70
2018-05-02T07:30:44.396Z,57.75
2018-05-02T07:31:44.397Z,57.78
2018-05-02T07:32:44.543Z,56.80
2018-05-02T07:33:44.399Z,56.60
2018-05-02T07:34:44.400Z,56.99
2018-05-02T07:35:44.402Z,57.37
2018-05-02T07:36:44.402Z,57.94
2018-05-02T07:37:44.404Z,58.80
2018-05-02T07:38:44.406Z,57.97
2018-05-02T07:39:44.408Z,57.59
2018-05-02T07:40:44.415Z,57.43
2018-05-02T07:41:44.431Z,56.76
2018-05-02T07:42:44.414Z,56.95
2018-05-02T07:43:44.417Z,54.66
2018-05-02T07:44:44.419Z,54.85
2018-05-02T07:45:44.422Z,55.52
2018-05-02T07:46:44.425Z,54.94
2018-05-02T07:47:44.431Z,53.89
2018-05-02T07:48:44.447Z,54.47
2018-05-02T07:49:44.434Z,54.47
2018-05-02T07:50:44.437Z,54.63
2018-05-02T07:51:44.441Z,54.63
2018-05-02T07:52:44.444Z,54.91
2018-05-02T07:53:44.447Z,56.16
2018-05-02T07:54:44.457Z,55.58
2018-05-02T07:55:44.453Z,55.99
2018-05-02T07:56:44.456Z,54.94
2018-05-02T07:57:44.460Z,54.88
2018-05-02T07:58:44.464Z,53.34
2018-05-02T07:59:44.468Z,53.82
2018-05-02T08:00:44.471Z,54.39
2018-05-02T08:01:44.475Z,53.73
2018-05-02T08:02:44.480Z,53.06
2018-05-02T08:03:44.484Z,52.67
2018-05-02T08:04:44.488Z,51.72
2018-05-02T08:05:44.499Z,51.91
2018-05-02T08:06:44.498Z,53.34
2018-05-02T08:07:44.501Z,53.25
2018-05-02T08:08:44.505Z,53.25
2018-05-02T08:09:44.511Z,53.37
2018-05-02T08:10:44.516Z,53.40
2018-05-02T08:11:44.523Z,52.15
2018-05-02T08:12:44.527Z,52.63
2018-05-02T08:13:44.546Z,49.86
2018-05-02T08:14:44.538Z,50.05
2018-05-02T08:15:44.544Z,49.93
2018-05-02T08:16:44.549Z,50.89
2018-05-02T08:17:44.555Z,52.34
2018-05-02T08:18:44.561Z,51.22
2018-05-02T08:19:44.570Z,50.07
2018-05-02T08:20:44.574Z,49.98
2018-05-02T08:21:44.580Z,49.69
2018-05-02T08:22:44.588Z,49.11
2018-05-02T08:23:44.595Z,47.11
2018-05-02T08:24:44.601Z,47.56
2018-05-02T08:25:44.609Z,48.71
2018-05-02T08:26:44.615Z,48.88
2018-05-02T08:27:44.622Z,48.21
2018-05-02T08:28:44.628Z,48.39
2018-05-02T08:29:44.635Z,48.97
2018-05-02T08:30:44.641Z,49.38
2018-05-02T08:31:44.648Z,49.09
2018-05-02T08:32:44.653Z,47.37
2018-05-02T08:33:44.660Z,47.27
2018-05-02T08:40:00.143Z,48.80
2018-05-02T08:41:00.150Z,49.76
2018-05-02T08:42:00.156Z,49.02
2018-05-02T08:43:00.163Z,46.72
2018-05-02T08:44:00.170Z,45.96
2018-05-02T08:45:00.177Z,45.76
2018-05-02T08:46:00.228Z,46.91
2018-05-02T08:47:00.192Z,46.17
2018-05-02T08:48:00.199Z,46.08
2018-05-02T08:49:00.207Z,44.52
2018-05-02T08:50:00.257Z,45.86
2018-05-02T08:51:00.225Z,45.74
2018-05-02T08:52:00.228Z,46.12
2018-05-02T08:53:00.236Z,46.44
2018-05-02T08:54:00.243Z,46.34
2018-05-02T08:55:00.250Z,47.68
2018-05-02T08:56:00.257Z,46.36
2018-05-02T08:57:00.264Z,45.57
2018-05-02T08:58:00.271Z,45.96
2018-05-02T08:59:00.279Z,47.30
2018-05-02T09:00:00.286Z,47.49
2018-05-02T09:01:00.295Z,47.80
2018-05-02T09:02:00.300Z,46.17
2018-05-02T09:03:00.308Z,45.59
2018-05-02T09:04:00.316Z,46.84
2018-05-02T09:05:00.331Z,45.69
2018-05-02T09:06:00.330Z,45.81
2018-05-02T09:07:00.339Z,46.29
2018-05-02T09:09:00.428Z,47.01
2018-05-02T09:10:00.364Z,45.98
2018-05-02T09:11:00.376Z,42.23
2018-05-02T09:12:00.390Z,42.90
2018-05-02T09:13:00.392Z,41.83
2018-05-02T09:14:00.401Z,42.47
2018-05-02T09:15:00.414Z,42.47
2018-05-02T09:16:00.421Z,45.04
2018-05-02T09:17:00.431Z,45.33
2018-05-02T09:18:00.439Z,45.90
2018-05-02T09:19:00.448Z,44.78
2018-05-02T09:20:00.457Z,43.80
2018-05-02T09:21:00.466Z,43.13
2018-05-02T09:22:00.475Z,43.60
2018-05-02T09:23:00.484Z,44.37
2018-05-02T09:24:00.493Z,43.80
2018-05-02T09:25:00.503Z,42.55
2018-05-02T09:26:00.511Z,41.97
2018-05-02T09:27:00.521Z,43.20
2018-05-02T09:28:00.530Z,43.41
2018-05-02T09:29:00.539Z,43.34
2018-05-02T09:30:00.547Z,42.55
2018-05-02T09:31:00.556Z,42.94
2018-05-02T09:32:00.565Z,42.55
2018-05-02T09:33:00.573Z,43.03
2018-05-02T09:34:00.580Z,42.65
2018-05-02T09:35:00.589Z,43.60
2018-05-02T09:36:00.597Z,44.85
2018-05-02T09:37:00.605Z,44.66
2018-05-02T09:38:00.611Z,44.83
2018-05-02T09:39:00.619Z,45.59
2018-05-02T09:40:00.624Z,45.19
2018-05-02T09:41:00.629Z,45.21
2018-05-02T09:42:00.633Z,45.31
2018-05-02T09:43:00.638Z,45.31
2018-05-02T09:44:00.671Z,45.69
2018-05-02T09:45:00.648Z,44.54
2018-05-02T09:46:00.654Z,44.35
2018-05-02T09:47:00.657Z,43.49
2018-05-02T09:48:00.661Z,44.64
2018-05-02T09:49:00.666Z,47.61
2018-05-02T09:50:00.670Z,46.55
2018-05-02T09:51:00.673Z,44.64
2018-05-02T09:52:00.698Z,45.98
2018-05-02T09:53:00.683Z,45.72
2018-05-02T09:54:00.687Z,46.79
2018-05-02T09:55:00.693Z,43.63
2018-05-02T09:56:00.698Z,43.84
2018-05-02T09:57:00.705Z,44.44
2018-05-02T09:58:00.711Z,43.88
2018-05-02T09:59:00.718Z,42.83
2018-05-02T10:00:00.727Z,42.35
2018-05-02T10:01:00.734Z,40.89
2018-05-02T10:02:00.741Z,41.06
2018-05-02T10:03:00.751Z,42.11
2018-05-02T10:04:00.757Z,42.38
2018-05-02T10:05:00.764Z,42.00
2018-05-02T10:06:00.773Z,42.67
2018-05-02T10:07:00.787Z,44.40
2018-05-02T10:08:00.784Z,43.44
2018-05-02T10:09:00.792Z,44.78
2018-05-02T10:10:00.796Z,44.87
2018-05-02T10:11:00.801Z,45.07
2018-05-02T10:12:00.806Z,43.80
2018-05-02T10:13:00.814Z,45.04
2018-05-02T10:14:00.813Z,45.43
2018-05-02T10:15:00.816Z,44.93
2018-05-02T10:16:00.820Z,45.76
2018-05-02T10:17:00.821Z,47.87
2018-05-02T10:18:00.822Z,48.83
2018-05-02T10:19:00.824Z,47.61
2018-05-02T10:20:00.826Z,48.57
2018-05-02T10:21:00.828Z,46.75
2018-05-02T10:22:00.829Z,46.65
2018-05-02T10:23:00.832Z,47.51
2018-05-02T10:24:00.833Z,46.17
2018-05-02T10:25:00.836Z,45.98
2018-05-02T10:26:00.836Z,45.89
2018-05-02T10:27:00.838Z,46.26
2018-05-02T10:28:00.841Z,46.62
2018-05-02T10:29:00.842Z,48.16
2018-05-02T10:30:00.842Z,47.58
2018-05-02T10:31:00.850Z,47.58
2018-05-02T10:32:00.844Z,47.85
2018-05-02T10:33:00.845Z,48.71
2018-05-02T10:34:00.843Z,48.71
2018-05-02T10:35:00.843Z,49.09
2018-05-02T10:36:00.843Z,49.00
2018-05-02T10:37:00.894Z,48.71
2018-05-02T10:38:00.844Z,49.95
2018-05-02T10:39:00.842Z,50.46
2018-05-02T10:40:00.844Z,53.45
2018-05-02T10:41:00.840Z,49.45
2018-05-02T10:42:00.839Z,46.58
2018-05-02T10:43:00.902Z,47.25
2018-05-02T10:44:00.840Z,46.58
2018-05-02T10:45:00.841Z,48.30
2018-05-02T10:46:00.840Z,45.83
2018-05-02T10:47:00.845Z,46.24
2018-05-02T10:48:00.851Z,44.51
2018-05-02T10:49:00.845Z,43.19
2018-05-02T10:50:00.847Z,44.37
2018-05-02T10:51:00.854Z,44.17
2018-05-02T10:52:00.857Z,41.77
2018-05-02T10:53:00.860Z,43.12
2018-05-02T10:54:00.865Z,44.84
2018-05-02T10:55:00.870Z,42.85
2018-05-02T10:56:00.891Z,42.49
2018-05-02T10:57:00.887Z,40.47
2018-05-02T10:58:00.888Z,39.79
2018-05-02T10:59:00.896Z,41.53
2018-05-02T11:00:00.906Z,39.89
2018-05-02T11:01:00.914Z,38.26
2018-05-02T11:02:00.920Z,39.78
2018-05-02T11:03:00.928Z,39.68
2018-05-02T11:04:00.937Z,40.18
2018-05-02T11:05:00.948Z,39.99
2018-05-02T11:06:00.955Z,38.74
2018-05-02T11:07:00.964Z,38.74
2018-05-02T11:08:00.974Z,38.84
2018-05-02T11:09:00.983Z,38.72
2018-05-02T11:10:00.993Z,38.34
2018-05-02T11:11:01.008Z,39.87
2018-05-02T11:12:01.025Z,39.79
2018-05-02T11:13:01.022Z,39.99
2018-05-02T11:14:01.036Z,39.61
2018-05-02T11:15:01.042Z,40.47
2018-05-02T11:16:01.052Z,40.28
2018-05-02T11:17:01.067Z,38.45
2018-05-02T11:18:01.070Z,37.66
2018-05-02T11:19:01.085Z,39.85
2018-05-02T11:20:01.089Z,39.76
2018-05-02T11:21:01.097Z,39.78
2018-05-02T11:22:01.112Z,39.22
2018-05-02T11:23:01.115Z,39.22
2018-05-02T11:24:01.124Z,37.68
2018-05-02T11:25:01.133Z,37.27
2018-05-02T11:26:01.142Z,38.64
2018-05-02T11:27:01.152Z,37.39
2018-05-02T11:28:01.164Z,37.39
2018-05-02T11:29:01.171Z,36.82
2018-05-02T11:30:01.180Z,38.16
2018-05-02T11:31:01.191Z,38.07
2018-05-02T11:32:01.201Z,37.30
2018-05-02T11:33:01.210Z,37.85
2018-05-02T11:34:01.219Z,37.26
2018-05-02T11:35:01.228Z,38.96
2018-05-02T11:36:01.237Z,39.54
2018-05-02T11:37:01.245Z,41.58
2018-05-02T11:38:01.253Z,40.83
2018-05-02T11:39:01.262Z,38.26
2018-05-02T11:40:01.270Z,37.77
2018-05-02T11:41:01.280Z,38.26
2018-05-02T11:42:01.288Z,37.39
2018-05-02T11:43:01.298Z,37.41
2018-05-02T11:44:01.314Z,35.77
2018-05-02T11:45:01.317Z,36.54
2018-05-02T11:46:01.325Z,36.54
2018-05-02T11:47:01.335Z,37.41
2018-05-02T11:48:01.345Z,38.39
2018-05-02T11:49:01.354Z,36.87
2018-05-02T11:50:01.371Z,34.08
2018-05-02T11:51:01.373Z,38.43
2018-05-02T11:52:01.383Z,35.73
2018-05-02T11:53:01.393Z,34.77
2018-05-02T11:54:01.406Z,36.51
2018-05-02T11:55:01.413Z,35.14
2018-05-02T11:56:01.428Z,35.22
2018-05-02T11:57:01.433Z,35.70
2018-05-02T11:58:01.442Z,36.58
2018-05-02T11:59:01.452Z,37.45
2018-05-02T12:00:01.466Z,38.41
2018-05-02T12:01:01.473Z,35.06
2018-05-02T12:02:01.483Z,35.35
2018-05-02T12:03:01.493Z,35.52
2018-05-02T12:04:01.503Z,34.64
2018-05-02T12:05:01.513Z,35.87
2018-05-02T12:06:01.523Z,37.01
2018-05-02T12:07:01.532Z,36.91
2018-05-02T12:08:01.543Z,36.82
2018-05-02T12:09:01.552Z,38.16
2018-05-02T12:10:01.560Z,38.35
2018-05-02T12:11:01.570Z,37.41
2018-05-02T12:12:01.579Z,37.51
2018-05-02T12:13:01.590Z,35.87
2018-05-02T12:14:01.602Z,36.53
2018-05-02T12:15:01.607Z,36.24
2018-05-02T12:16:01.639Z,37.01
2018-05-02T12:17:01.631Z,38.45
2018-05-02T12:18:01.636Z,38.09
2018-05-02T12:19:01.641Z,37.41
2018-05-02T12:20:01.649Z,36.18
2018-05-02T12:21:01.658Z,37.34
2018-05-02T12:22:01.666Z,35.68
2018-05-02T12:23:01.676Z,35.93
2018-05-02T12:24:01.687Z,38.24
2018-05-02T12:25:01.691Z,39.03
2018-05-02T12:26:01.699Z,37.41
2018-05-02T12:27:01.708Z,37.41
2018-05-02T12:28:01.715Z,36.95
2018-05-02T12:29:01.723Z,36.10
2018-05-02T12:30:01.731Z,35.04
2018-05-02T12:31:01.738Z,35.91
2018-05-02T12:32:01.746Z,35.60
2018-05-02T12:33:01.756Z,36.37
2018-05-02T12:34:01.761Z,35.87
2018-05-02T12:35:01.771Z,36.64
2018-05-02T12:36:01.777Z,37.43
2018-05-02T12:37:01.781Z,35.91
2018-05-02T12:38:01.786Z,35.14
2018-05-02T12:39:01.799Z,35.91
2018-05-02T12:40:01.802Z,36.68
2018-05-02T12:41:01.808Z,35.91
2018-05-02T12:42:01.820Z,36.39
2018-05-02T12:43:01.824Z,34.84
2018-05-02T12:44:01.826Z,34.83
2018-05-02T12:45:01.833Z,36.49
2018-05-02T12:46:01.840Z,35.91
2018-05-02T12:47:01.844Z,35.73
2018-05-02T12:48:01.851Z,35.64
2018-05-02T12:49:01.859Z,33.79
2018-05-02T12:50:01.863Z,35.20
2018-05-02T12:51:01.869Z,36.83
2018-05-02T12:52:01.878Z,37.72
2018-05-02T12:53:01.880Z,35.81
2018-05-02T12:54:01.885Z,36.29
2018-05-02T12:55:01.893Z,35.93
2018-05-02T12:56:02.010Z,34.96
2018-05-02T12:57:01.901Z,34.77
2018-05-02T12:58:01.907Z,35.06
2018-05-02T12:59:01.913Z,34.46